sensor_id;sensor_type;location;lat;lon;timestamp;P1;durP1;ratioP1;P2;durP2;ratioP2
86241;SDS011;76911;51.784;4.658;2024-03-02T00:00:08;0.85;;;0.81;;
86241;SDS011;76911;51.784;4.658;2024-03-02T00:02:41;1.07;;;1.03;;
86241;SDS011;76911;51.784;4.658;2024-03-02T00:05:15;0.85;;;0.83;;
86241;SDS011;76911;51.784;4.658;2024-03-02T00:07:43;0.92;;;0.90;;
86241;SDS011;76911;51.784;4.658;2024-03-02T00:10:10;0.90;;;0.88;;
86241;SDS011;76911;51.784;4.658;2024-03-02T00:12:39;0.81;;;0.79;;
86241;SDS011;76911;51.784;4.658;2024-03-02T00:18:10;0.80;;;0.79;;
86241;SDS011;76911;51.784;4.658;2024-03-02T00:20:37;0.83;;;0.82;;
86241;SDS011;76911;51.784;4.658;2024-03-02T00:23:04;0.82;;;0.81;;
86241;SDS011;76911;51.784;4.658;2024-03-02T00:25:37;1.15;;;1.13;;
86241;SDS011;76911;51.784;4.658;2024-03-02T00:28:10;1.19;;;1.17;;
86241;SDS011;76911;51.784;4.658;2024-03-02T00:33:34;1.09;;;1.08;;
86241;SDS011;76911;51.784;4.658;2024-03-02T00:36:11;1.07;;;1.06;;
86241;SDS011;76911;51.784;4.658;2024-03-02T00:38:47;1.21;;;1.20;;
86241;SDS011;76911;51.784;4.658;2024-03-02T00:41:24;1.21;;;1.21;;
86241;SDS011;76911;51.784;4.658;2024-03-02T00:43:59;1.11;;;1.11;;
86241;SDS011;76911;51.784;4.658;2024-03-02T00:46:27;1.14;;;1.14;;
86241;SDS011;76911;51.784;4.658;2024-03-02T00:48:56;1.17;;;1.17;;
86241;SDS011;76911;51.784;4.658;2024-03-02T00:51:27;1.10;;;1.10;;
86241;SDS011;76911;51.784;4.658;2024-03-02T00:53:55;1.04;;;1.04;;
86241;SDS011;76911;51.784;4.658;2024-03-02T00:56:23;1.13;;;1.13;;
86241;SDS011;76911;51.784;4.658;2024-03-02T00:58:50;1.14;;;1.14;;
86241;SDS011;76911;51.784;4.658;2024-03-02T01:01:16;1.32;;;1.32;;
86241;SDS011;76911;51.784;4.658;2024-03-02T01:03:42;1.25;;;1.25;;
86241;SDS011;76911;51.784;4.658;2024-03-02T01:06:08;1.30;;;1.30;;
86241;SDS011;76911;51.784;4.658;2024-03-02T01:08:34;1.32;;;1.32;;
86241;SDS011;76911;51.784;4.658;2024-03-02T01:11:00;1.28;;;1.28;;
86241;SDS011;76911;51.784;4.658;2024-03-02T01:13:27;1.30;;;1.30;;
86241;SDS011;76911;51.784;4.658;2024-03-02T01:15:52;1.30;;;1.30;;
86241;SDS011;76911;51.784;4.658;2024-03-02T01:18:18;1.03;;;1.03;;
86241;SDS011;76911;51.784;4.658;2024-03-02T01:20:44;1.09;;;1.09;;
86241;SDS011;76911;51.784;4.658;2024-03-02T01:23:10;0.97;;;0.97;;
86241;SDS011;76911;51.784;4.658;2024-03-02T01:25:36;0.80;;;0.80;;
86241;SDS011;76911;51.784;4.658;2024-03-02T01:28:02;0.85;;;0.85;;
86241;SDS011;76911;51.784;4.658;2024-03-02T01:30:28;0.78;;;0.78;;
86241;SDS011;76911;51.784;4.658;2024-03-02T01:32:53;0.81;;;0.81;;
86241;SDS011;76911;51.784;4.658;2024-03-02T01:35:18;0.88;;;0.88;;
86241;SDS011;76911;51.784;4.658;2024-03-02T01:37:44;0.78;;;0.78;;
86241;SDS011;76911;51.784;4.658;2024-03-02T01:40:10;0.72;;;0.72;;
86241;SDS011;76911;51.784;4.658;2024-03-02T01:42:36;0.81;;;0.81;;
86241;SDS011;76911;51.784;4.658;2024-03-02T01:45:03;0.72;;;0.72;;
86241;SDS011;76911;51.784;4.658;2024-03-02T01:47:32;0.75;;;0.75;;
86241;SDS011;76911;51.784;4.658;2024-03-02T01:49:58;0.69;;;0.69;;
86241;SDS011;76911;51.784;4.658;2024-03-02T01:52:24;0.74;;;0.74;;
86241;SDS011;76911;51.784;4.658;2024-03-02T01:54:49;0.65;;;0.65;;
86241;SDS011;76911;51.784;4.658;2024-03-02T01:57:15;0.67;;;0.67;;
86241;SDS011;76911;51.784;4.658;2024-03-02T01:59:41;0.88;;;0.88;;
86241;SDS011;76911;51.784;4.658;2024-03-02T02:02:06;0.79;;;0.79;;
86241;SDS011;76911;51.784;4.658;2024-03-02T02:04:33;0.80;;;0.80;;
86241;SDS011;76911;51.784;4.658;2024-03-02T02:06:58;0.87;;;0.87;;
86241;SDS011;76911;51.784;4.658;2024-03-02T02:09:24;0.81;;;0.81;;
86241;SDS011;76911;51.784;4.658;2024-03-02T02:11:50;1.09;;;1.09;;
86241;SDS011;76911;51.784;4.658;2024-03-02T02:14:17;1.01;;;1.01;;
86241;SDS011;76911;51.784;4.658;2024-03-02T02:16:42;0.82;;;0.82;;
86241;SDS011;76911;51.784;4.658;2024-03-02T02:19:08;1.11;;;1.11;;
86241;SDS011;76911;51.784;4.658;2024-03-02T02:21:34;1.06;;;1.05;;
86241;SDS011;76911;51.784;4.658;2024-03-02T02:24:00;1.00;;;1.00;;
86241;SDS011;76911;51.784;4.658;2024-03-02T02:26:28;1.09;;;1.08;;
86241;SDS011;76911;51.784;4.658;2024-03-02T02:28:53;1.02;;;1.02;;
86241;SDS011;76911;51.784;4.658;2024-03-02T02:31:19;1.19;;;1.19;;
86241;SDS011;76911;51.784;4.658;2024-03-02T02:33:44;1.19;;;1.19;;
86241;SDS011;76911;51.784;4.658;2024-03-02T02:36:09;1.19;;;1.18;;
86241;SDS011;76911;51.784;4.658;2024-03-02T02:38:37;1.15;;;1.15;;
86241;SDS011;76911;51.784;4.658;2024-03-02T02:41:06;1.06;;;1.06;;
86241;SDS011;76911;51.784;4.658;2024-03-02T02:43:32;1.11;;;1.11;;
86241;SDS011;76911;51.784;4.658;2024-03-02T02:45:58;1.20;;;1.19;;
86241;SDS011;76911;51.784;4.658;2024-03-02T02:48:23;1.28;;;1.27;;
86241;SDS011;76911;51.784;4.658;2024-03-02T02:50:49;1.11;;;1.10;;
86241;SDS011;76911;51.784;4.658;2024-03-02T02:53:14;1.06;;;1.05;;
86241;SDS011;76911;51.784;4.658;2024-03-02T02:55:39;1.07;;;1.06;;
86241;SDS011;76911;51.784;4.658;2024-03-02T02:58:09;0.99;;;0.99;;
86241;SDS011;76911;51.784;4.658;2024-03-02T03:00:34;0.98;;;0.97;;
86241;SDS011;76911;51.784;4.658;2024-03-02T03:03:01;0.87;;;0.87;;
86241;SDS011;76911;51.784;4.658;2024-03-02T03:05:27;1.02;;;1.01;;
86241;SDS011;76911;51.784;4.658;2024-03-02T03:07:52;0.91;;;0.91;;
86241;SDS011;76911;51.784;4.658;2024-03-02T03:10:18;0.98;;;0.97;;
86241;SDS011;76911;51.784;4.658;2024-03-02T03:12:43;0.88;;;0.87;;
86241;SDS011;76911;51.784;4.658;2024-03-02T03:15:09;1.05;;;1.04;;
86241;SDS011;76911;51.784;4.658;2024-03-02T03:17:35;1.02;;;1.02;;
86241;SDS011;76911;51.784;4.658;2024-03-02T03:20:02;1.08;;;1.08;;
86241;SDS011;76911;51.784;4.658;2024-03-02T03:22:29;0.96;;;0.96;;
86241;SDS011;76911;51.784;4.658;2024-03-02T03:24:57;0.98;;;0.98;;
86241;SDS011;76911;51.784;4.658;2024-03-02T03:27:23;0.96;;;0.96;;
86241;SDS011;76911;51.784;4.658;2024-03-02T03:29:48;0.94;;;0.94;;
86241;SDS011;76911;51.784;4.658;2024-03-02T03:32:14;0.86;;;0.86;;
86241;SDS011;76911;51.784;4.658;2024-03-02T03:34:39;0.90;;;0.90;;
86241;SDS011;76911;51.784;4.658;2024-03-02T03:37:05;0.93;;;0.93;;
86241;SDS011;76911;51.784;4.658;2024-03-02T03:39:31;0.90;;;0.90;;
86241;SDS011;76911;51.784;4.658;2024-03-02T03:41:56;0.93;;;0.93;;
86241;SDS011;76911;51.784;4.658;2024-03-02T03:44:22;0.87;;;0.87;;
86241;SDS011;76911;51.784;4.658;2024-03-02T03:46:47;0.90;;;0.90;;
86241;SDS011;76911;51.784;4.658;2024-03-02T03:49:13;0.94;;;0.94;;
86241;SDS011;76911;51.784;4.658;2024-03-02T03:51:38;0.88;;;0.87;;
86241;SDS011;76911;51.784;4.658;2024-03-02T03:54:04;0.90;;;0.90;;
86241;SDS011;76911;51.784;4.658;2024-03-02T03:56:29;0.92;;;0.92;;
86241;SDS011;76911;51.784;4.658;2024-03-02T03:58:55;0.88;;;0.88;;
86241;SDS011;76911;51.784;4.658;2024-03-02T04:01:20;0.97;;;0.97;;
86241;SDS011;76911;51.784;4.658;2024-03-02T04:03:47;1.05;;;1.05;;
86241;SDS011;76911;51.784;4.658;2024-03-02T04:06:13;0.96;;;0.96;;
86241;SDS011;76911;51.784;4.658;2024-03-02T04:08:39;0.91;;;0.91;;
86241;SDS011;76911;51.784;4.658;2024-03-02T04:11:06;0.97;;;0.97;;
86241;SDS011;76911;51.784;4.658;2024-03-02T04:13:33;0.95;;;0.94;;
86241;SDS011;76911;51.784;4.658;2024-03-02T04:15:58;0.92;;;0.91;;
86241;SDS011;76911;51.784;4.658;2024-03-02T04:18:23;0.91;;;0.90;;
86241;SDS011;76911;51.784;4.658;2024-03-02T04:20:49;1.13;;;1.11;;
86241;SDS011;76911;51.784;4.658;2024-03-02T04:23:14;1.11;;;1.09;;
86241;SDS011;76911;51.784;4.658;2024-03-02T04:25:40;0.99;;;0.98;;
86241;SDS011;76911;51.784;4.658;2024-03-02T04:28:05;1.04;;;1.03;;
86241;SDS011;76911;51.784;4.658;2024-03-02T04:30:31;0.98;;;0.97;;
86241;SDS011;76911;51.784;4.658;2024-03-02T04:32:56;1.13;;;1.10;;
86241;SDS011;76911;51.784;4.658;2024-03-02T04:35:22;1.35;;;1.32;;
86241;SDS011;76911;51.784;4.658;2024-03-02T04:37:47;1.28;;;1.24;;
86241;SDS011;76911;51.784;4.658;2024-03-02T04:40:13;1.32;;;1.28;;
86241;SDS011;76911;51.784;4.658;2024-03-02T04:42:38;1.27;;;1.22;;
86241;SDS011;76911;51.784;4.658;2024-03-02T04:45:04;1.26;;;1.22;;
86241;SDS011;76911;51.784;4.658;2024-03-02T04:47:29;1.14;;;1.10;;
86241;SDS011;76911;51.784;4.658;2024-03-02T04:49:55;1.00;;;0.96;;
86241;SDS011;76911;51.784;4.658;2024-03-02T04:52:20;1.12;;;1.08;;
86241;SDS011;76911;51.784;4.658;2024-03-02T04:54:46;1.08;;;1.05;;
86241;SDS011;76911;51.784;4.658;2024-03-02T04:57:30;1.19;;;1.13;;
86241;SDS011;76911;51.784;4.658;2024-03-02T04:59:55;1.06;;;1.02;;
86241;SDS011;76911;51.784;4.658;2024-03-02T05:02:20;1.17;;;1.12;;
86241;SDS011;76911;51.784;4.658;2024-03-02T05:04:46;1.01;;;0.97;;
86241;SDS011;76911;51.784;4.658;2024-03-02T05:07:13;0.95;;;0.91;;
86241;SDS011;76911;51.784;4.658;2024-03-02T05:09:39;0.95;;;0.91;;
86241;SDS011;76911;51.784;4.658;2024-03-02T05:12:05;1.02;;;0.97;;
86241;SDS011;76911;51.784;4.658;2024-03-02T05:15:00;1.06;;;1.01;;
86241;SDS011;76911;51.784;4.658;2024-03-02T05:17:27;1.07;;;1.01;;
86241;SDS011;76911;51.784;4.658;2024-03-02T05:19:52;1.17;;;1.10;;
86241;SDS011;76911;51.784;4.658;2024-03-02T05:22:17;1.02;;;0.96;;
86241;SDS011;76911;51.784;4.658;2024-03-02T05:24:43;1.01;;;0.94;;
86241;SDS011;76911;51.784;4.658;2024-03-02T05:27:09;1.08;;;1.01;;
86241;SDS011;76911;51.784;4.658;2024-03-02T05:29:34;1.15;;;1.08;;
86241;SDS011;76911;51.784;4.658;2024-03-02T05:32:00;1.07;;;1.00;;
86241;SDS011;76911;51.784;4.658;2024-03-02T05:34:25;1.15;;;1.07;;
86241;SDS011;76911;51.784;4.658;2024-03-02T05:36:50;1.25;;;1.14;;
86241;SDS011;76911;51.784;4.658;2024-03-02T05:39:16;1.15;;;1.05;;
86241;SDS011;76911;51.784;4.658;2024-03-02T05:41:41;1.26;;;1.15;;
86241;SDS011;76911;51.784;4.658;2024-03-02T05:44:07;0.99;;;0.91;;
86241;SDS011;76911;51.784;4.658;2024-03-02T05:46:32;1.03;;;0.94;;
86241;SDS011;76911;51.784;4.658;2024-03-02T05:48:59;1.23;;;1.14;;
86241;SDS011;76911;51.784;4.658;2024-03-02T05:51:25;1.26;;;1.17;;
86241;SDS011;76911;51.784;4.658;2024-03-02T05:53:51;1.16;;;1.07;;
86241;SDS011;76911;51.784;4.658;2024-03-02T05:56:16;0.99;;;0.91;;
86241;SDS011;76911;51.784;4.658;2024-03-02T05:58:42;1.11;;;1.01;;
86241;SDS011;76911;51.784;4.658;2024-03-02T06:01:13;0.98;;;0.90;;
86241;SDS011;76911;51.784;4.658;2024-03-02T06:03:38;1.02;;;0.94;;
86241;SDS011;76911;51.784;4.658;2024-03-02T06:06:04;1.17;;;1.09;;
86241;SDS011;76911;51.784;4.658;2024-03-02T06:08:30;1.06;;;0.97;;
86241;SDS011;76911;51.784;4.658;2024-03-02T06:10:56;1.09;;;1.01;;
86241;SDS011;76911;51.784;4.658;2024-03-02T06:13:22;0.96;;;0.89;;
86241;SDS011;76911;51.784;4.658;2024-03-02T06:15:48;1.11;;;1.03;;
86241;SDS011;76911;51.784;4.658;2024-03-02T06:18:13;1.16;;;1.07;;
86241;SDS011;76911;51.784;4.658;2024-03-02T06:20:39;1.14;;;1.03;;
86241;SDS011;76911;51.784;4.658;2024-03-02T06:23:04;1.08;;;0.98;;
86241;SDS011;76911;51.784;4.658;2024-03-02T06:25:30;1.19;;;1.08;;
86241;SDS011;76911;51.784;4.658;2024-03-02T06:27:56;1.21;;;1.09;;
86241;SDS011;76911;51.784;4.658;2024-03-02T06:30:21;1.16;;;1.04;;
86241;SDS011;76911;51.784;4.658;2024-03-02T06:32:46;1.11;;;0.99;;
86241;SDS011;76911;51.784;4.658;2024-03-02T06:35:12;1.50;;;1.32;;
86241;SDS011;76911;51.784;4.658;2024-03-02T06:37:38;1.47;;;1.29;;
86241;SDS011;76911;51.784;4.658;2024-03-02T06:40:05;1.21;;;1.07;;
86241;SDS011;76911;51.784;4.658;2024-03-02T06:42:33;1.32;;;1.15;;
86241;SDS011;76911;51.784;4.658;2024-03-02T06:44:59;1.30;;;1.14;;
86241;SDS011;76911;51.784;4.658;2024-03-02T06:47:24;1.44;;;1.25;;
86241;SDS011;76911;51.784;4.658;2024-03-02T06:49:50;1.22;;;1.07;;
86241;SDS011;76911;51.784;4.658;2024-03-02T06:52:16;1.17;;;1.03;;
86241;SDS011;76911;51.784;4.658;2024-03-02T06:54:41;1.43;;;1.25;;
86241;SDS011;76911;51.784;4.658;2024-03-02T06:57:07;1.60;;;1.38;;
86241;SDS011;76911;51.784;4.658;2024-03-02T06:59:32;1.32;;;1.13;;
86241;SDS011;76911;51.784;4.658;2024-03-02T07:01:58;1.42;;;1.19;;
86241;SDS011;76911;51.784;4.658;2024-03-02T07:04:24;1.40;;;1.19;;
86241;SDS011;76911;51.784;4.658;2024-03-02T07:06:49;1.42;;;1.24;;
86241;SDS011;76911;51.784;4.658;2024-03-02T07:09:16;1.40;;;1.24;;
86241;SDS011;76911;51.784;4.658;2024-03-02T07:11:42;1.27;;;1.15;;
86241;SDS011;76911;51.784;4.658;2024-03-02T07:14:07;1.38;;;1.25;;
86241;SDS011;76911;51.784;4.658;2024-03-02T07:16:32;1.46;;;1.32;;
86241;SDS011;76911;51.784;4.658;2024-03-02T07:18:59;1.37;;;1.25;;
86241;SDS011;76911;51.784;4.658;2024-03-02T07:21:27;1.42;;;1.28;;
86241;SDS011;76911;51.784;4.658;2024-03-02T07:23:53;1.55;;;1.41;;
86241;SDS011;76911;51.784;4.658;2024-03-02T07:26:18;1.39;;;1.28;;
86241;SDS011;76911;51.784;4.658;2024-03-02T07:28:47;1.37;;;1.25;;
86241;SDS011;76911;51.784;4.658;2024-03-02T07:31:14;1.23;;;1.11;;
86241;SDS011;76911;51.784;4.658;2024-03-02T07:33:40;1.38;;;1.27;;
86241;SDS011;76911;51.784;4.658;2024-03-02T07:36:06;1.32;;;1.21;;
86241;SDS011;76911;51.784;4.658;2024-03-02T07:38:33;1.54;;;1.41;;
86241;SDS011;76911;51.784;4.658;2024-03-02T07:41:00;1.77;;;1.63;;
86241;SDS011;76911;51.784;4.658;2024-03-02T07:43:26;2.10;;;1.96;;
86241;SDS011;76911;51.784;4.658;2024-03-02T07:45:51;1.48;;;1.38;;
86241;SDS011;76911;51.784;4.658;2024-03-02T07:48:17;1.74;;;1.64;;
86241;SDS011;76911;51.784;4.658;2024-03-02T07:50:43;1.70;;;1.60;;
86241;SDS011;76911;51.784;4.658;2024-03-02T07:53:09;1.49;;;1.41;;
86241;SDS011;76911;51.784;4.658;2024-03-02T07:55:35;1.62;;;1.55;;
86241;SDS011;76911;51.784;4.658;2024-03-02T07:58:01;1.67;;;1.59;;
86241;SDS011;76911;51.784;4.658;2024-03-02T08:00:26;1.56;;;1.46;;
86241;SDS011;76911;51.784;4.658;2024-03-02T08:02:52;1.78;;;1.65;;
86241;SDS011;76911;51.784;4.658;2024-03-02T08:05:19;1.41;;;1.31;;
86241;SDS011;76911;51.784;4.658;2024-03-02T08:07:45;1.44;;;1.34;;
86241;SDS011;76911;51.784;4.658;2024-03-02T08:10:11;1.46;;;1.35;;
86241;SDS011;76911;51.784;4.658;2024-03-02T08:12:37;1.45;;;1.32;;
86241;SDS011;76911;51.784;4.658;2024-03-02T08:15:03;1.65;;;1.49;;
86241;SDS011;76911;51.784;4.658;2024-03-02T08:17:29;1.51;;;1.36;;
86241;SDS011;76911;51.784;4.658;2024-03-02T08:19:55;1.64;;;1.45;;
86241;SDS011;76911;51.784;4.658;2024-03-02T08:22:21;1.61;;;1.42;;
86241;SDS011;76911;51.784;4.658;2024-03-02T08:24:47;1.72;;;1.52;;
86241;SDS011;76911;51.784;4.658;2024-03-02T08:27:13;1.69;;;1.50;;
86241;SDS011;76911;51.784;4.658;2024-03-02T08:29:40;1.74;;;1.52;;
86241;SDS011;76911;51.784;4.658;2024-03-02T08:32:06;1.61;;;1.39;;
86241;SDS011;76911;51.784;4.658;2024-03-02T08:34:32;1.71;;;1.46;;
86241;SDS011;76911;51.784;4.658;2024-03-02T08:36:59;1.78;;;1.50;;
86241;SDS011;76911;51.784;4.658;2024-03-02T08:39:24;1.96;;;1.65;;
86241;SDS011;76911;51.784;4.658;2024-03-02T08:41:50;1.85;;;1.56;;
86241;SDS011;76911;51.784;4.658;2024-03-02T08:44:16;1.90;;;1.57;;
86241;SDS011;76911;51.784;4.658;2024-03-02T08:46:42;1.71;;;1.42;;
86241;SDS011;76911;51.784;4.658;2024-03-02T08:49:09;1.94;;;1.60;;
86241;SDS011;76911;51.784;4.658;2024-03-02T08:51:34;1.82;;;1.49;;
86241;SDS011;76911;51.784;4.658;2024-03-02T08:54:00;2.07;;;1.67;;
86241;SDS011;76911;51.784;4.658;2024-03-02T08:56:25;2.11;;;1.67;;
86241;SDS011;76911;51.784;4.658;2024-03-02T08:58:51;2.15;;;1.68;;
86241;SDS011;76911;51.784;4.658;2024-03-02T09:01:18;2.20;;;1.72;;
86241;SDS011;76911;51.784;4.658;2024-03-02T09:03:46;1.87;;;1.46;;
86241;SDS011;76911;51.784;4.658;2024-03-02T09:06:14;2.26;;;1.76;;
86241;SDS011;76911;51.784;4.658;2024-03-02T09:08:42;2.18;;;1.70;;
86241;SDS011;76911;51.784;4.658;2024-03-02T09:11:08;1.89;;;1.48;;
86241;SDS011;76911;51.784;4.658;2024-03-02T09:13:35;2.24;;;1.75;;
86241;SDS011;76911;51.784;4.658;2024-03-02T09:16:02;2.29;;;1.78;;
86241;SDS011;76911;51.784;4.658;2024-03-02T09:18:28;2.51;;;1.92;;
86241;SDS011;76911;51.784;4.658;2024-03-02T09:20:53;2.27;;;1.74;;
86241;SDS011;76911;51.784;4.658;2024-03-02T09:23:18;2.27;;;1.74;;
86241;SDS011;76911;51.784;4.658;2024-03-02T09:25:44;2.44;;;1.85;;
86241;SDS011;76911;51.784;4.658;2024-03-02T09:28:10;2.38;;;1.86;;
86241;SDS011;76911;51.784;4.658;2024-03-02T09:30:36;2.66;;;2.09;;
86241;SDS011;76911;51.784;4.658;2024-03-02T09:33:01;2.62;;;2.08;;
86241;SDS011;76911;51.784;4.658;2024-03-02T09:35:27;2.06;;;1.62;;
86241;SDS011;76911;51.784;4.658;2024-03-02T09:37:52;2.28;;;1.76;;
86241;SDS011;76911;51.784;4.658;2024-03-02T09:40:18;2.40;;;1.88;;
86241;SDS011;76911;51.784;4.658;2024-03-02T09:42:47;2.71;;;2.09;;
86241;SDS011;76911;51.784;4.658;2024-03-02T09:45:20;2.84;;;2.19;;
86241;SDS011;76911;51.784;4.658;2024-03-02T09:47:49;2.43;;;1.89;;
86241;SDS011;76911;51.784;4.658;2024-03-02T09:50:14;2.52;;;1.93;;
86241;SDS011;76911;51.784;4.658;2024-03-02T09:52:40;2.70;;;2.05;;
86241;SDS011;76911;51.784;4.658;2024-03-02T09:55:08;2.76;;;2.12;;
86241;SDS011;76911;51.784;4.658;2024-03-02T09:57:34;2.79;;;2.15;;
86241;SDS011;76911;51.784;4.658;2024-03-02T09:59:59;2.66;;;2.05;;
86241;SDS011;76911;51.784;4.658;2024-03-02T10:02:25;2.77;;;2.12;;
86241;SDS011;76911;51.784;4.658;2024-03-02T10:04:51;2.84;;;2.16;;
86241;SDS011;76911;51.784;4.658;2024-03-02T10:07:17;2.98;;;2.29;;
86241;SDS011;76911;51.784;4.658;2024-03-02T10:09:47;2.98;;;2.30;;
86241;SDS011;76911;51.784;4.658;2024-03-02T10:12:15;2.90;;;2.22;;
86241;SDS011;76911;51.784;4.658;2024-03-02T10:14:42;2.63;;;2.05;;
86241;SDS011;76911;51.784;4.658;2024-03-02T10:17:12;2.55;;;2.00;;
86241;SDS011;76911;51.784;4.658;2024-03-02T10:19:39;2.79;;;2.18;;
86241;SDS011;76911;51.784;4.658;2024-03-02T10:22:05;2.71;;;2.09;;
86241;SDS011;76911;51.784;4.658;2024-03-02T10:24:36;2.64;;;2.07;;
86241;SDS011;76911;51.784;4.658;2024-03-02T10:29:36;2.75;;;2.08;;
86241;SDS011;76911;51.784;4.658;2024-03-02T10:32:03;2.71;;;2.03;;
86241;SDS011;76911;51.784;4.658;2024-03-02T10:34:29;3.06;;;2.26;;
86241;SDS011;76911;51.784;4.658;2024-03-02T10:36:56;3.25;;;2.35;;
86241;SDS011;76911;51.784;4.658;2024-03-02T10:39:22;3.13;;;2.24;;
86241;SDS011;76911;51.784;4.658;2024-03-02T10:41:49;3.20;;;2.28;;
86241;SDS011;76911;51.784;4.658;2024-03-02T10:44:18;2.93;;;2.11;;
86241;SDS011;76911;51.784;4.658;2024-03-02T10:46:44;3.16;;;2.28;;
86241;SDS011;76911;51.784;4.658;2024-03-02T10:49:12;3.19;;;2.26;;
86241;SDS011;76911;51.784;4.658;2024-03-02T10:51:38;2.69;;;1.90;;
86241;SDS011;76911;51.784;4.658;2024-03-02T10:54:03;2.90;;;2.04;;
86241;SDS011;76911;51.784;4.658;2024-03-02T10:59:23;3.20;;;2.21;;
86241;SDS011;76911;51.784;4.658;2024-03-02T11:01:59;3.17;;;2.22;;
86241;SDS011;76911;51.784;4.658;2024-03-02T11:04:29;3.58;;;2.48;;
86241;SDS011;76911;51.784;4.658;2024-03-02T11:07:00;3.15;;;2.18;;
86241;SDS011;76911;51.784;4.658;2024-03-02T11:09:29;2.78;;;1.97;;
86241;SDS011;76911;51.784;4.658;2024-03-02T11:14:30;2.50;;;1.82;;
86241;SDS011;76911;51.784;4.658;2024-03-02T11:17:00;2.17;;;1.59;;
86241;SDS011;76911;51.784;4.658;2024-03-02T11:19:28;2.55;;;1.87;;
86241;SDS011;76911;51.784;4.658;2024-03-02T11:21:56;2.41;;;1.80;;
86241;SDS011;76911;51.784;4.658;2024-03-02T11:27:14;2.36;;;1.76;;
86241;SDS011;76911;51.784;4.658;2024-03-02T11:29:59;2.40;;;1.79;;
86241;SDS011;76911;51.784;4.658;2024-03-02T11:32:25;2.71;;;1.98;;
86241;SDS011;76911;51.784;4.658;2024-03-02T11:34:51;2.77;;;2.01;;
86241;SDS011;76911;51.784;4.658;2024-03-02T11:37:17;2.17;;;1.59;;
86241;SDS011;76911;51.784;4.658;2024-03-02T11:39:49;2.33;;;1.73;;
86241;SDS011;76911;51.784;4.658;2024-03-02T11:42:16;2.62;;;1.91;;
86241;SDS011;76911;51.784;4.658;2024-03-02T11:44:43;2.55;;;1.85;;
86241;SDS011;76911;51.784;4.658;2024-03-02T11:47:12;2.97;;;2.12;;
86241;SDS011;76911;51.784;4.658;2024-03-02T11:49:41;2.70;;;1.94;;
86241;SDS011;76911;51.784;4.658;2024-03-02T11:52:08;2.49;;;1.81;;
86241;SDS011;76911;51.784;4.658;2024-03-02T11:54:40;2.42;;;1.75;;
86241;SDS011;76911;51.784;4.658;2024-03-02T11:57:12;2.91;;;2.07;;
86241;SDS011;76911;51.784;4.658;2024-03-02T11:59:42;3.24;;;2.31;;
86241;SDS011;76911;51.784;4.658;2024-03-02T12:02:15;3.28;;;2.36;;
86241;SDS011;76911;51.784;4.658;2024-03-02T12:04:45;3.05;;;2.18;;
86241;SDS011;76911;51.784;4.658;2024-03-02T12:07:18;2.64;;;1.90;;
86241;SDS011;76911;51.784;4.658;2024-03-02T12:09:48;2.29;;;1.67;;
86241;SDS011;76911;51.784;4.658;2024-03-02T12:12:14;2.53;;;1.85;;
86241;SDS011;76911;51.784;4.658;2024-03-02T12:14:49;2.68;;;1.98;;
86241;SDS011;76911;51.784;4.658;2024-03-02T12:17:17;2.57;;;1.90;;
86241;SDS011;76911;51.784;4.658;2024-03-02T12:19:43;2.53;;;1.84;;
86241;SDS011;76911;51.784;4.658;2024-03-02T12:22:09;2.80;;;2.01;;
86241;SDS011;76911;51.784;4.658;2024-03-02T12:24:35;2.80;;;2.01;;
86241;SDS011;76911;51.784;4.658;2024-03-02T12:27:02;2.99;;;2.13;;
86241;SDS011;76911;51.784;4.658;2024-03-02T12:29:29;3.20;;;2.30;;
86241;SDS011;76911;51.784;4.658;2024-03-02T12:31:55;2.50;;;1.81;;
86241;SDS011;76911;51.784;4.658;2024-03-02T12:34:21;2.53;;;1.82;;
86241;SDS011;76911;51.784;4.658;2024-03-02T12:36:48;2.93;;;2.09;;
86241;SDS011;76911;51.784;4.658;2024-03-02T12:39:17;2.70;;;1.92;;
86241;SDS011;76911;51.784;4.658;2024-03-02T12:41:44;2.57;;;1.82;;
86241;SDS011;76911;51.784;4.658;2024-03-02T12:44:11;2.35;;;1.68;;
86241;SDS011;76911;51.784;4.658;2024-03-02T12:46:36;2.52;;;1.78;;
86241;SDS011;76911;51.784;4.658;2024-03-02T12:49:09;2.85;;;2.03;;
86241;SDS011;76911;51.784;4.658;2024-03-02T12:51:39;2.31;;;1.64;;
86241;SDS011;76911;51.784;4.658;2024-03-02T12:54:09;2.41;;;1.72;;
86241;SDS011;76911;51.784;4.658;2024-03-02T12:56:36;2.71;;;1.94;;
86241;SDS011;76911;51.784;4.658;2024-03-02T12:59:03;2.49;;;1.77;;
86241;SDS011;76911;51.784;4.658;2024-03-02T13:01:29;2.33;;;1.67;;
86241;SDS011;76911;51.784;4.658;2024-03-02T13:03:55;2.43;;;1.73;;
86241;SDS011;76911;51.784;4.658;2024-03-02T13:06:21;2.59;;;1.83;;
86241;SDS011;76911;51.784;4.658;2024-03-02T13:08:48;2.92;;;2.06;;
86241;SDS011;76911;51.784;4.658;2024-03-02T13:11:14;3.02;;;2.12;;
86241;SDS011;76911;51.784;4.658;2024-03-02T13:13:42;2.57;;;1.81;;
86241;SDS011;76911;51.784;4.658;2024-03-02T13:16:10;3.09;;;2.17;;
86241;SDS011;76911;51.784;4.658;2024-03-02T13:18:40;2.93;;;2.06;;
86241;SDS011;76911;51.784;4.658;2024-03-02T13:21:07;2.86;;;2.05;;
86241;SDS011;76911;51.784;4.658;2024-03-02T13:23:33;2.86;;;2.08;;
86241;SDS011;76911;51.784;4.658;2024-03-02T13:25:59;2.47;;;1.82;;
86241;SDS011;76911;51.784;4.658;2024-03-02T13:28:25;2.31;;;1.69;;
86241;SDS011;76911;51.784;4.658;2024-03-02T13:30:50;2.01;;;1.48;;
86241;SDS011;76911;51.784;4.658;2024-03-02T13:33:16;2.30;;;1.70;;
86241;SDS011;76911;51.784;4.658;2024-03-02T13:35:49;2.09;;;1.55;;
86241;SDS011;76911;51.784;4.658;2024-03-02T13:38:16;2.20;;;1.62;;
86241;SDS011;76911;51.784;4.658;2024-03-02T13:40:44;1.99;;;1.48;;
86241;SDS011;76911;51.784;4.658;2024-03-02T13:43:10;1.81;;;1.35;;
86241;SDS011;76911;51.784;4.658;2024-03-02T13:45:37;2.18;;;1.62;;
86241;SDS011;76911;51.784;4.658;2024-03-02T13:48:03;2.04;;;1.54;;
86241;SDS011;76911;51.784;4.658;2024-03-02T13:50:29;2.35;;;1.77;;
86241;SDS011;76911;51.784;4.658;2024-03-02T13:52:55;2.49;;;1.87;;
86241;SDS011;76911;51.784;4.658;2024-03-02T13:55:21;2.19;;;1.64;;
86241;SDS011;76911;51.784;4.658;2024-03-02T13:57:47;2.49;;;1.88;;
86241;SDS011;76911;51.784;4.658;2024-03-02T14:00:15;2.72;;;2.01;;
86241;SDS011;76911;51.784;4.658;2024-03-02T14:02:42;2.19;;;1.62;;
86241;SDS011;76911;51.784;4.658;2024-03-02T14:05:08;2.44;;;1.78;;
86241;SDS011;76911;51.784;4.658;2024-03-02T14:07:37;2.37;;;1.75;;
86241;SDS011;76911;51.784;4.658;2024-03-02T14:10:03;2.23;;;1.66;;
86241;SDS011;76911;51.784;4.658;2024-03-02T14:12:29;2.49;;;1.84;;
86241;SDS011;76911;51.784;4.658;2024-03-02T14:14:54;2.74;;;1.97;;
86241;SDS011;76911;51.784;4.658;2024-03-02T14:17:23;2.41;;;1.72;;
86241;SDS011;76911;51.784;4.658;2024-03-02T14:19:49;2.40;;;1.72;;
86241;SDS011;76911;51.784;4.658;2024-03-02T14:22:15;2.54;;;1.84;;
86241;SDS011;76911;51.784;4.658;2024-03-02T14:24:42;2.66;;;1.98;;
86241;SDS011;76911;51.784;4.658;2024-03-02T14:27:09;2.10;;;1.58;;
86241;SDS011;76911;51.784;4.658;2024-03-02T14:29:34;2.11;;;1.60;;
86241;SDS011;76911;51.784;4.658;2024-03-02T14:32:03;2.09;;;1.58;;
86241;SDS011;76911;51.784;4.658;2024-03-02T14:34:29;2.29;;;1.72;;
86241;SDS011;76911;51.784;4.658;2024-03-02T14:36:55;2.90;;;2.19;;
86241;SDS011;76911;51.784;4.658;2024-03-02T14:39:20;2.73;;;2.05;;
86241;SDS011;76911;51.784;4.658;2024-03-02T14:41:46;2.79;;;2.07;;
86241;SDS011;76911;51.784;4.658;2024-03-02T14:44:11;2.75;;;2.05;;
86241;SDS011;76911;51.784;4.658;2024-03-02T14:46:37;2.81;;;2.12;;
86241;SDS011;76911;51.784;4.658;2024-03-02T14:49:03;2.08;;;1.59;;
86241;SDS011;76911;51.784;4.658;2024-03-02T14:51:29;1.84;;;1.42;;
86241;SDS011;76911;51.784;4.658;2024-03-02T14:53:55;2.06;;;1.61;;
86241;SDS011;76911;51.784;4.658;2024-03-02T14:56:21;1.88;;;1.48;;
86241;SDS011;76911;51.784;4.658;2024-03-02T14:58:46;2.01;;;1.57;;
86241;SDS011;76911;51.784;4.658;2024-03-02T15:01:12;2.18;;;1.70;;